sensor_id;sensor_type;location;lat;lon;timestamp;pressure;altitude;pressure_sealevel;temperature;humidity
14295;BME280;7231;59.370;18.016;2023-10-08T00:01:04;100749.97;;;3.83;62.98
14295;BME280;7231;59.370;18.016;2023-10-08T00:03:33;100738.38;;;3.77;62.43
14295;BME280;7231;59.370;18.016;2023-10-08T00:06:03;100710.22;;;3.52;62.66
14295;BME280;7231;59.370;18.016;2023-10-08T00:08:39;100764.47;;;3.80;63.11
14295;BME280;7231;59.370;18.016;2023-10-08T00:11:07;100763.56;;;3.79;62.89
14295;BME280;7231;59.370;18.016;2023-10-08T00:13:37;100744.50;;;3.63;62.83
14295;BME280;7231;59.370;18.016;2023-10-08T00:16:10;100765.03;;;3.74;63.35
14295;BME280;7231;59.370;18.016;2023-10-08T00:18:43;100769.47;;;3.77;63.25
14295;BME280;7231;59.370;18.016;2023-10-08T00:21:20;100763.50;;;3.78;63.08
14295;BME280;7231;59.370;18.016;2023-10-08T00:23:54;100778.97;;;3.76;63.04
14295;BME280;7231;59.370;18.016;2023-10-08T00:26:27;100776.28;;;3.75;63.09
14295;BME280;7231;59.370;18.016;2023-10-08T00:28:58;100778.06;;;3.76;63.04
14295;BME280;7231;59.370;18.016;2023-10-08T00:31:28;100779.69;;;3.74;63.39
14295;BME280;7231;59.370;18.016;2023-10-08T00:34:04;100777.00;;;3.72;63.41
14295;BME280;7231;59.370;18.016;2023-10-08T00:36:38;100758.53;;;3.66;63.27
14295;BME280;7231;59.370;18.016;2023-10-08T00:39:08;100784.06;;;3.75;63.40
14295;BME280;7231;59.370;18.016;2023-10-08T00:41:41;100786.75;;;3.76;63.17
14295;BME280;7231;59.370;18.016;2023-10-08T00:44:12;100780.66;;;3.76;63.49
14295;BME280;7231;59.370;18.016;2023-10-08T00:46:44;100779.69;;;3.74;63.21
14295;BME280;7231;59.370;18.016;2023-10-08T00:49:16;100777.91;;;3.73;63.55
14295;BME280;7231;59.370;18.016;2023-10-08T00:51:55;100788.91;;;3.69;63.75
14295;BME280;7231;59.370;18.016;2023-10-08T00:54:45;100784.72;;;3.71;63.46
14295;BME280;7231;59.370;18.016;2023-10-08T00:57:26;100782.75;;;3.67;63.81
14295;BME280;7231;59.370;18.016;2023-10-08T00:59:56;100782.03;;;3.69;63.50
14295;BME280;7231;59.370;18.016;2023-10-08T01:02:29;100791.69;;;3.72;63.81
14295;BME280;7231;59.370;18.016;2023-10-08T01:05:10;100787.38;;;3.72;63.51
14295;BME280;7231;59.370;18.016;2023-10-08T01:07:40;100784.88;;;3.74;63.75
14295;BME280;7231;59.370;18.016;2023-10-08T01:10:11;100777.91;;;3.73;63.55
14295;BME280;7231;59.370;18.016;2023-10-08T01:12:41;100782.84;;;3.68;63.57
14295;BME280;7231;59.370;18.016;2023-10-08T01:15:32;100783.72;;;3.69;63.71
14295;BME280;7231;59.370;18.016;2023-10-08T01:18:04;100770.59;;;3.66;63.82
14295;BME280;7231;59.370;18.016;2023-10-08T01:20:40;100781.06;;;3.67;63.86
14295;BME280;7231;59.370;18.016;2023-10-08T01:23:20;100785.03;;;3.61;63.75
14295;BME280;7231;59.370;18.016;2023-10-08T01:25:49;100794.66;;;3.63;63.88
14295;BME280;7231;59.370;18.016;2023-10-08T01:28:21;100792.88;;;3.62;63.79
14295;BME280;7231;59.370;18.016;2023-10-08T01:30:57;100795.31;;;3.59;63.80
14295;BME280;7231;59.370;18.016;2023-10-08T01:33:27;100792.78;;;3.61;64.10
14295;BME280;7231;59.370;18.016;2023-10-08T01:35:56;100796.28;;;3.61;64.10
14295;BME280;7231;59.370;18.016;2023-10-08T01:38:30;100797.25;;;3.63;63.82
14295;BME280;7231;59.370;18.016;2023-10-08T01:40:59;100744.72;;;3.35;64.15
14295;BME280;7231;59.370;18.016;2023-10-08T01:43:46;100805.94;;;3.64;64.14
14295;BME280;7231;59.370;18.016;2023-10-08T01:46:14;100802.44;;;3.63;64.30
14295;BME280;7231;59.370;18.016;2023-10-08T01:48:42;100796.38;;;3.63;64.25
14295;BME280;7231;59.370;18.016;2023-10-08T01:51:12;100796.38;;;3.63;64.25
14295;BME280;7231;59.370;18.016;2023-10-08T01:53:54;100797.97;;;3.61;64.37
14295;BME280;7231;59.370;18.016;2023-10-08T01:56:25;100794.41;;;3.58;64.47
14295;BME280;7231;59.370;18.016;2023-10-08T01:58:53;100796.91;;;3.57;64.60
14295;BME280;7231;59.370;18.016;2023-10-08T02:01:21;100806.41;;;3.56;64.56
14295;BME280;7231;59.370;18.016;2023-10-08T02:03:50;100814.25;;;3.58;64.45
14295;BME280;7231;59.370;18.016;2023-10-08T02:06:18;100809.97;;;3.58;64.58
14295;BME280;7231;59.370;18.016;2023-10-08T02:08:47;100789.53;;;3.48;64.55
14295;BME280;7231;59.370;18.016;2023-10-08T02:11:17;100803.56;;;3.52;64.73
14295;BME280;7231;59.370;18.016;2023-10-08T02:13:47;100819.28;;;3.55;64.85
14295;BME280;7231;59.370;18.016;2023-10-08T02:16:18;100822.16;;;3.45;64.62
14295;BME280;7231;59.370;18.016;2023-10-08T02:18:46;100829.56;;;3.53;64.58
14295;BME280;7231;59.370;18.016;2023-10-08T02:21:17;100832.97;;;3.52;65.05
14295;BME280;7231;59.370;18.016;2023-10-08T02:23:46;100822.59;;;3.52;65.16
14295;BME280;7231;59.370;18.016;2023-10-08T02:26:16;100835.56;;;3.52;65.13
14295;BME280;7231;59.370;18.016;2023-10-08T02:28:46;100845.91;;;3.52;64.76
14295;BME280;7231;59.370;18.016;2023-10-08T02:31:15;100839.75;;;3.50;64.94
14295;BME280;7231;59.370;18.016;2023-10-08T02:33:45;100838.88;;;3.50;65.44
14295;BME280;7231;59.370;18.016;2023-10-08T02:36:13;100833.84;;;3.53;64.89
14295;BME280;7231;59.370;18.016;2023-10-08T02:38:40;100817.53;;;3.39;64.94
14295;BME280;7231;59.370;18.016;2023-10-08T02:41:09;100832.16;;;3.53;65.19
14295;BME280;7231;59.370;18.016;2023-10-08T02:43:43;100833.84;;;3.53;65.30
14295;BME280;7231;59.370;18.016;2023-10-08T02:46:12;100848.59;;;3.54;65.22
14295;BME280;7231;59.370;18.016;2023-10-08T02:48:42;100805.28;;;3.37;64.91
14295;BME280;7231;59.370;18.016;2023-10-08T02:51:10;100850.56;;;3.58;65.42
14295;BME280;7231;59.370;18.016;2023-10-08T02:53:41;100850.38;;;3.55;65.11
14295;BME280;7231;59.370;18.016;2023-10-08T02:56:11;100855.00;;;3.61;65.38
14295;BME280;7231;59.370;18.016;2023-10-08T02:58:44;100850.28;;;3.53;65.34
14295;BME280;7231;59.370;18.016;2023-10-08T03:01:13;100852.34;;;3.59;65.15
14295;BME280;7231;59.370;18.016;2023-10-08T03:03:41;100859.41;;;3.62;65.36
14295;BME280;7231;59.370;18.016;2023-10-08T03:06:10;100862.78;;;3.61;65.64
14295;BME280;7231;59.370;18.016;2023-10-08T03:08:41;100866.13;;;3.58;65.69
14295;BME280;7231;59.370;18.016;2023-10-08T03:11:10;100861.72;;;3.57;65.69
14295;BME280;7231;59.370;18.016;2023-10-08T03:13:48;100867.56;;;3.53;65.98
14295;BME280;7231;59.370;18.016;2023-10-08T03:16:18;100871.03;;;3.53;65.91
14295;BME280;7231;59.370;18.016;2023-10-08T03:18:54;100875.97;;;3.49;66.08
14295;BME280;7231;59.370;18.016;2023-10-08T03:21:24;100873.19;;;3.46;66.02
14295;BME280;7231;59.370;18.016;2023-10-08T03:24:15;100873.91;;;3.43;66.03
14295;BME280;7231;59.370;18.016;2023-10-08T03:26:56;100885.97;;;3.43;66.25
14295;BME280;7231;59.370;18.016;2023-10-08T03:29:35;100893.84;;;3.44;66.12
14295;BME280;7231;59.370;18.016;2023-10-08T03:32:08;100888.56;;;3.43;66.37
14295;BME280;7231;59.370;18.016;2023-10-08T03:34:43;100891.25;;;3.44;66.74
14295;BME280;7231;59.370;18.016;2023-10-08T03:37:13;100888.47;;;3.41;66.53
14295;BME280;7231;59.370;18.016;2023-10-08T03:39:48;100909.41;;;3.44;66.57
14295;BME280;7231;59.370;18.016;2023-10-08T03:42:19;100909.41;;;3.44;66.48
14295;BME280;7231;59.370;18.016;2023-10-08T03:44:50;100905.66;;;3.39;66.62
14295;BME280;7231;59.370;18.016;2023-10-08T03:47:19;100903.69;;;3.35;66.98
14295;BME280;7231;59.370;18.016;2023-10-08T03:49:49;100918.59;;;3.39;66.78
14295;BME280;7231;59.370;18.016;2023-10-08T03:52:18;100918.50;;;3.38;66.91
14295;BME280;7231;59.370;18.016;2023-10-08T03:54:50;100928.78;;;3.36;66.98
14295;BME280;7231;59.370;18.016;2023-10-08T03:57:31;100925.31;;;3.36;66.97
14295;BME280;7231;59.370;18.016;2023-10-08T04:00:11;100908.50;;;3.29;67.20
14295;BME280;7231;59.370;18.016;2023-10-08T04:02:44;100932.09;;;3.34;66.91
14295;BME280;7231;59.370;18.016;2023-10-08T04:05:21;100928.53;;;3.32;66.79
14295;BME280;7231;59.370;18.016;2023-10-08T04:07:54;100949.16;;;3.30;67.24
14295;BME280;7231;59.370;18.016;2023-10-08T04:10:46;100946.56;;;3.30;67.19
14295;BME280;7231;59.370;18.016;2023-10-08T04:13:31;100950.16;;;3.32;67.05
14295;BME280;7231;59.370;18.016;2023-10-08T04:16:00;100949.78;;;3.26;67.16
14295;BME280;7231;59.370;18.016;2023-10-08T04:18:31;100941.94;;;3.24;67.24
14295;BME280;7231;59.370;18.016;2023-10-08T04:21:07;100949.00;;;3.27;67.40
14295;BME280;7231;59.370;18.016;2023-10-08T04:23:40;100951.75;;;3.30;67.57
14295;BME280;7231;59.370;18.016;2023-10-08T04:26:11;100962.13;;;3.30;67.50
14295;BME280;7231;59.370;18.016;2023-10-08T04:28:39;100960.44;;;3.31;67.57
14295;BME280;7231;59.370;18.016;2023-10-08T04:31:09;100963.91;;;3.31;67.54
14295;BME280;7231;59.370;18.016;2023-10-08T04:33:44;100975.09;;;3.30;67.54
14295;BME280;7231;59.370;18.016;2023-10-08T04:36:14;100977.31;;;3.24;67.41
14295;BME280;7231;59.370;18.016;2023-10-08T04:38:45;100988.84;;;3.29;67.41
14295;BME280;7231;59.370;18.016;2023-10-08T04:41:15;100987.84;;;3.27;67.71
14295;BME280;7231;59.370;18.016;2023-10-08T04:43:46;100995.63;;;3.27;67.29
14295;BME280;7231;59.370;18.016;2023-10-08T04:46:18;100939.59;;;3.00;67.65
14295;BME280;7231;59.370;18.016;2023-10-08T04:49:01;101005.38;;;3.31;67.42
14295;BME280;7231;59.370;18.016;2023-10-08T04:51:34;101009.66;;;3.31;67.44
14295;BME280;7231;59.370;18.016;2023-10-08T04:54:10;100999.91;;;3.26;67.86
14295;BME280;7231;59.370;18.016;2023-10-08T04:56:43;101004.03;;;3.23;67.49
14295;BME280;7231;59.370;18.016;2023-10-08T04:59:11;101013.06;;;3.30;67.55
14295;BME280;7231;59.370;18.016;2023-10-08T05:01:41;101022.63;;;3.31;67.74
14295;BME280;7231;59.370;18.016;2023-10-08T05:04:15;101026.19;;;3.33;67.43
14295;BME280;7231;59.370;18.016;2023-10-08T05:06:57;101035.66;;;3.32;67.44
14295;BME280;7231;59.370;18.016;2023-10-08T05:09:44;101033.69;;;3.28;67.90
14295;BME280;7231;59.370;18.016;2023-10-08T05:12:37;101022.53;;;3.29;67.59
14295;BME280;7231;59.370;18.016;2023-10-08T05:15:09;101028.44;;;3.26;67.73
14295;BME280;7231;59.370;18.016;2023-10-08T05:18:02;101038.78;;;3.26;67.66
14295;BME280;7231;59.370;18.016;2023-10-08T05:20:51;101040.75;;;3.31;67.74
14295;BME280;7231;59.370;18.016;2023-10-08T05:23:30;101047.91;;;3.35;67.60
14295;BME280;7231;59.370;18.016;2023-10-08T05:26:20;101047.38;;;3.40;67.91
14295;BME280;7231;59.370;18.016;2023-10-08T05:28:57;101028.59;;;3.30;67.62
14295;BME280;7231;59.370;18.016;2023-10-08T05:31:49;101064.91;;;3.44;67.59
14295;BME280;7231;59.370;18.016;2023-10-08T05:34:40;101061.53;;;3.45;67.72
14295;BME280;7231;59.370;18.016;2023-10-08T05:37:23;101072.16;;;3.50;67.60
14295;BME280;7231;59.370;18.016;2023-10-08T05:40:05;101077.53;;;3.53;67.62
14295;BME280;7231;59.370;18.016;2023-10-08T05:42:48;101048.38;;;3.42;67.51
14295;BME280;7231;59.370;18.016;2023-10-08T05:45:27;101072.34;;;3.53;67.58
14295;BME280;7231;59.370;18.016;2023-10-08T05:48:01;101089.53;;;3.66;67.72
14295;BME280;7231;59.370;18.016;2023-10-08T05:50:41;101098.47;;;3.71;67.58
14295;BME280;7231;59.370;18.016;2023-10-08T05:53:23;101105.00;;;3.79;67.32
14295;BME280;7231;59.370;18.016;2023-10-08T05:56:07;101109.75;;;3.86;67.35
14295;BME280;7231;59.370;18.016;2023-10-08T05:58:55;101117.91;;;3.92;67.27
14295;BME280;7231;59.370;18.016;2023-10-08T06:01:41;101114.94;;;4.01;67.03
14295;BME280;7231;59.370;18.016;2023-10-08T06:04:12;101127.47;;;4.08;67.05
14295;BME280;7231;59.370;18.016;2023-10-08T06:07:11;101113.59;;;4.07;66.90
14295;BME280;7231;59.370;18.016;2023-10-08T06:09:43;101121.94;;;4.16;66.63
14295;BME280;7231;59.370;18.016;2023-10-08T06:12:27;101137.75;;;4.36;67.13
14295;BME280;7231;59.370;18.016;2023-10-08T06:14:57;101141.13;;;4.64;67.07
14295;BME280;7231;59.370;18.016;2023-10-08T06:17:37;101143.97;;;5.00;66.30
14295;BME280;7231;59.370;18.016;2023-10-08T06:20:28;101146.25;;;5.10;65.20
14295;BME280;7231;59.370;18.016;2023-10-08T06:22:58;101151.53;;;5.11;65.00
14295;BME280;7231;59.370;18.016;2023-10-08T06:25:30;101144.00;;;5.16;65.23
14295;BME280;7231;59.370;18.016;2023-10-08T06:27:58;101151.28;;;5.23;65.24
14295;BME280;7231;59.370;18.016;2023-10-08T06:30:26;101154.69;;;5.22;64.42
14295;BME280;7231;59.370;18.016;2023-10-08T06:32:56;101158.69;;;5.15;64.51
14295;BME280;7231;59.370;18.016;2023-10-08T06:35:25;101111.28;;;4.72;64.55
14295;BME280;7231;59.370;18.016;2023-10-08T06:37:54;101049.16;;;4.30;64.82
14295;BME280;7231;59.370;18.016;2023-10-08T06:40:30;101163.28;;;4.88;64.91
14295;BME280;7231;59.370;18.016;2023-10-08T06:43:10;101164.38;;;4.77;65.33
14295;BME280;7231;59.370;18.016;2023-10-08T06:45:51;101174.13;;;4.81;65.19
14295;BME280;7231;59.370;18.016;2023-10-08T06:48:21;101178.84;;;4.88;65.42
14295;BME280;7231;59.370;18.016;2023-10-08T06:50:52;101183.13;;;5.03;66.09
14295;BME280;7231;59.370;18.016;2023-10-08T06:53:24;101143.09;;;5.15;67.33
14295;BME280;7231;59.370;18.016;2023-10-08T06:55:58;101181.69;;;5.73;66.77
14295;BME280;7231;59.370;18.016;2023-10-08T06:58:31;101187.16;;;6.10;66.72
14295;BME280;7231;59.370;18.016;2023-10-08T07:01:00;101134.22;;;6.27;66.67
14295;BME280;7231;59.370;18.016;2023-10-08T07:03:32;101189.16;;;7.03;65.94
14295;BME280;7231;59.370;18.016;2023-10-08T07:06:01;101188.16;;;7.36;65.25
14295;BME280;7231;59.370;18.016;2023-10-08T07:08:36;101183.34;;;7.84;64.83
14295;BME280;7231;59.370;18.016;2023-10-08T07:11:06;101181.50;;;8.22;63.55
14295;BME280;7231;59.370;18.016;2023-10-08T07:13:39;101183.72;;;8.53;63.03
14295;BME280;7231;59.370;18.016;2023-10-08T07:16:08;101181.94;;;8.72;62.35
14295;BME280;7231;59.370;18.016;2023-10-08T07:18:38;101200.09;;;9.13;61.63
14295;BME280;7231;59.370;18.016;2023-10-08T07:21:08;101197.78;;;9.42;60.78
14295;BME280;7231;59.370;18.016;2023-10-08T07:23:40;101185.50;;;9.64;59.43
14295;BME280;7231;59.370;18.016;2023-10-08T07:26:25;101215.38;;;10.17;58.80
14295;BME280;7231;59.370;18.016;2023-10-08T07:29:04;101220.91;;;10.50;58.23
14295;BME280;7231;59.370;18.016;2023-10-08T07:31:36;101222.91;;;10.57;56.82
14295;BME280;7231;59.370;18.016;2023-10-08T07:34:04;101220.06;;;10.76;56.14
14295;BME280;7231;59.370;18.016;2023-10-08T07:36:46;101240.75;;;10.94;55.64
14295;BME280;7231;59.370;18.016;2023-10-08T07:39:16;101234.38;;;11.13;55.54
14295;BME280;7231;59.370;18.016;2023-10-08T07:42:03;101245.00;;;11.44;54.34
14295;BME280;7231;59.370;18.016;2023-10-08T07:44:34;101241.91;;;11.57;53.76
14295;BME280;7231;59.370;18.016;2023-10-08T07:47:06;101240.94;;;11.82;53.38
14295;BME280;7231;59.370;18.016;2023-10-08T07:49:37;101252.25;;;12.10;52.58
14295;BME280;7231;59.370;18.016;2023-10-08T07:52:05;101233.47;;;12.27;51.73
14295;BME280;7231;59.370;18.016;2023-10-08T07:54:33;101245.25;;;12.42;51.16
14295;BME280;7231;59.370;18.016;2023-10-08T07:57:03;101249.53;;;12.71;50.55
14295;BME280;7231;59.370;18.016;2023-10-08T07:59:40;101204.91;;;12.76;50.30
14295;BME280;7231;59.370;18.016;2023-10-08T08:02:15;101250.63;;;13.15;49.80
14295;BME280;7231;59.370;18.016;2023-10-08T08:04:45;101249.66;;;13.12;49.76
14295;BME280;7231;59.370;18.016;2023-10-08T08:07:18;101260.50;;;13.24;49.63
14295;BME280;7231;59.370;18.016;2023-10-08T08:09:48;101246.50;;;13.25;49.10
14295;BME280;7231;59.370;18.016;2023-10-08T08:12:21;101260.38;;;13.18;48.97
14295;BME280;7231;59.370;18.016;2023-10-08T08:14:50;101265.13;;;12.98;49.09
14295;BME280;7231;59.370;18.016;2023-10-08T08:17:18;101269.56;;;12.99;49.27
14295;BME280;7231;59.370;18.016;2023-10-08T08:19:51;101262.19;;;13.20;48.69
14295;BME280;7231;59.370;18.016;2023-10-08T08:22:20;101280.75;;;13.26;48.42
14295;BME280;7231;59.370;18.016;2023-10-08T08:24:50;101276.56;;;13.35;47.97
14295;BME280;7231;59.370;18.016;2023-10-08T08:27:26;101283.84;;;13.45;47.37
14295;BME280;7231;59.370;18.016;2023-10-08T08:30:00;101269.19;;;13.57;47.70
14295;BME280;7231;59.370;18.016;2023-10-08T08:32:37;101277.50;;;13.76;47.14
14295;BME280;7231;59.370;18.016;2023-10-08T08:35:07;101287.66;;;13.98;46.57
14295;BME280;7231;59.370;18.016;2023-10-08T08:37:36;101273.72;;;14.04;45.74
14295;BME280;7231;59.370;18.016;2023-10-08T08:40:06;101297.25;;;13.94;46.06
14295;BME280;7231;59.370;18.016;2023-10-08T08:42:37;101291.03;;;13.91;45.75
14295;BME280;7231;59.370;18.016;2023-10-08T08:45:06;101305.22;;;13.97;45.72
14295;BME280;7231;59.370;18.016;2023-10-08T08:47:39;101291.09;;;13.94;45.72
14295;BME280;7231;59.370;18.016;2023-10-08T08:50:08;101298.50;;;14.12;45.30
14295;BME280;7231;59.370;18.016;2023-10-08T08:52:38;101300.47;;;14.22;45.08
14295;BME280;7231;59.370;18.016;2023-10-08T08:55:07;101314.09;;;14.42;45.20
14295;BME280;7231;59.370;18.016;2023-10-08T08:57:43;101313.56;;;14.59;44.32
14295;BME280;7231;59.370;18.016;2023-10-08T09:00:12;101307.63;;;14.71;44.38
14295;BME280;7231;59.370;18.016;2023-10-08T09:02:41;101314.09;;;14.87;43.88
14295;BME280;7231;59.370;18.016;2023-10-08T09:05:11;101309.03;;;14.99;43.82
14295;BME280;7231;59.370;18.016;2023-10-08T09:07:57;101311.25;;;15.27;43.34
14295;BME280;7231;59.370;18.016;2023-10-08T09:10:26;101289.97;;;15.18;43.44
14295;BME280;7231;59.370;18.016;2023-10-08T09:12:57;101325.34;;;15.26;42.99
14295;BME280;7231;59.370;18.016;2023-10-08T09:15:27;101314.63;;;15.17;42.88
14295;BME280;7231;59.370;18.016;2023-10-08T09:17:56;101316.41;;;15.20;42.75
14295;BME280;7231;59.370;18.016;2023-10-08T09:20:28;101327.97;;;15.26;42.50
14295;BME280;7231;59.370;18.016;2023-10-08T09:23:08;101327.94;;;15.25;41.71
14295;BME280;7231;59.370;18.016;2023-10-08T09:25:39;101323.75;;;15.36;42.06
14295;BME280;7231;59.370;18.016;2023-10-08T09:28:09;101328.38;;;15.51;42.08
14295;BME280;7231;59.370;18.016;2023-10-08T09:30:40;101332.94;;;15.61;41.75
14295;BME280;7231;59.370;18.016;2023-10-08T09:33:13;101319.50;;;15.46;41.53
14295;BME280;7231;59.370;18.016;2023-10-08T09:35:42;101329.03;;;15.36;41.45
14295;BME280;7231;59.370;18.016;2023-10-08T09:38:11;101338.69;;;15.36;41.60
14295;BME280;7231;59.370;18.016;2023-10-08T09:40:40;101338.78;;;15.40;41.37
14295;BME280;7231;59.370;18.016;2023-10-08T09:43:10;101355.84;;;15.59;41.28
14295;BME280;7231;59.370;18.016;2023-10-08T09:45:38;101368.66;;;15.90;41.17
14295;BME280;7231;59.370;18.016;2023-10-08T09:48:11;101368.09;;;16.14;40.79
14295;BME280;7231;59.370;18.016;2023-10-08T09:50:41;101363.56;;;16.06;40.23
14295;BME280;7231;59.370;18.016;2023-10-08T09:53:11;101368.56;;;15.86;39.88
14295;BME280;7231;59.370;18.016;2023-10-08T09:55:48;101372.94;;;15.82;40.18
14295;BME280;7231;59.370;18.016;2023-10-08T09:58:20;101370.75;;;16.16;40.03
14295;BME280;7231;59.370;18.016;2023-10-08T10:00:53;101371.09;;;16.42;39.64
14295;BME280;7231;59.370;18.016;2023-10-08T10:03:25;101372.22;;;16.59;39.30
14295;BME280;7231;59.370;18.016;2023-10-08T10:05:54;101390.53;;;16.42;39.34
14295;BME280;7231;59.370;18.016;2023-10-08T10:08:27;101362.03;;;16.23;39.11
14295;BME280;7231;59.370;18.016;2023-10-08T10:11:03;101402.56;;;16.19;39.33
14295;BME280;7231;59.370;18.016;2023-10-08T10:13:38;101407.75;;;16.13;38.98
14295;BME280;7231;59.370;18.016;2023-10-08T10:16:09;101397.88;;;16.00;38.66
14295;BME280;7231;59.370;18.016;2023-10-08T10:18:37;101403.13;;;15.97;39.06
14295;BME280;7231;59.370;18.016;2023-10-08T10:21:30;101403.41;;;16.16;38.61
14295;BME280;7231;59.370;18.016;2023-10-08T10:24:00;101410.47;;;16.17;38.69
14295;BME280;7231;59.370;18.016;2023-10-08T10:26:30;101411.28;;;16.12;38.68
14295;BME280;7231;59.370;18.016;2023-10-08T10:29:18;101409.50;;;16.11;38.12
14295;BME280;7231;59.370;18.016;2023-10-08T10:31:48;101409.41;;;16.05;38.54
14295;BME280;7231;59.370;18.016;2023-10-08T10:34:21;101407.63;;;16.04;38.38
14295;BME280;7231;59.370;18.016;2023-10-08T10:36:51;101408.41;;;15.97;38.66
14295;BME280;7231;59.370;18.016;2023-10-08T10:39:25;101395.09;;;15.90;38.94
14295;BME280;7231;59.370;18.016;2023-10-08T10:41:56;101407.53;;;15.96;38.76
14295;BME280;7231;59.370;18.016;2023-10-08T10:44:30;101386.16;;;15.84;38.51
14295;BME280;7231;59.370;18.016;2023-10-08T10:46:59;101380.63;;;15.67;38.63
14295;BME280;7231;59.370;18.016;2023-10-08T10:49:46;101425.03;;;15.89;38.63
14295;BME280;7231;59.370;18.016;2023-10-08T10:52:21;101424.41;;;16.04;38.46
14295;BME280;7231;59.370;18.016;2023-10-08T10:55:11;101428.19;;;16.23;38.48
14295;BME280;7231;59.370;18.016;2023-10-08T10:57:50;101410.59;;;16.27;38.28
14295;BME280;7231;59.370;18.016;2023-10-08T11:00:32;101419.66;;;16.44;37.96
14295;BME280;7231;59.370;18.016;2023-10-08T11:03:16;101399.84;;;16.14;37.60
14295;BME280;7231;59.370;18.016;2023-10-08T11:05:53;101432.22;;;15.98;37.74
14295;BME280;7231;59.370;18.016;2023-10-08T11:08:23;101440.06;;;15.90;38.19
14295;BME280;7231;59.370;18.016;2023-10-08T11:10:52;101440.28;;;16.06;38.20
14295;BME280;7231;59.370;18.016;2023-10-08T11:13:25;101444.06;;;16.21;37.74
14295;BME280;7231;59.370;18.016;2023-10-08T11:16:06;101447.50;;;16.16;37.73
14295;BME280;7231;59.370;18.016;2023-10-08T11:18:42;101446.50;;;16.08;37.35
14295;BME280;7231;59.370;18.016;2023-10-08T11:21:11;101457.09;;;16.09;37.53
14295;BME280;7231;59.370;18.016;2023-10-08T11:23:44;101448.06;;;15.95;37.51
14295;BME280;7231;59.370;18.016;2023-10-08T11:26:20;101459.03;;;15.65;37.43
14295;BME280;7231;59.370;18.016;2023-10-08T11:29:00;101464.91;;;15.49;37.76
14295;BME280;7231;59.370;18.016;2023-10-08T11:31:31;101480.41;;;15.31;37.71
14295;BME280;7231;59.370;18.016;2023-10-08T11:34:02;101483.94;;;15.31;37.99
14295;BME280;7231;59.370;18.016;2023-10-08T11:36:36;101478.88;;;15.42;37.98
14295;BME280;7231;59.370;18.016;2023-10-08T11:39:16;101466.22;;;15.25;38.15
14295;BME280;7231;59.370;18.016;2023-10-08T11:41:56;101475.78;;;15.19;37.92
14295;BME280;7231;59.370;18.016;2023-10-08T11:44:24;101484.31;;;15.04;38.20
14295;BME280;7231;59.370;18.016;2023-10-08T11:46:58;101469.94;;;14.90;38.21
14295;BME280;7231;59.370;18.016;2023-10-08T11:49:38;101480.19;;;14.76;38.29
14295;BME280;7231;59.370;18.016;2023-10-08T11:52:14;101490.72;;;14.75;38.54
14295;BME280;7231;59.370;18.016;2023-10-08T11:54:44;101488.84;;;14.69;38.57
14295;BME280;7231;59.370;18.016;2023-10-08T11:57:15;101489.00;;;14.77;38.41
14295;BME280;7231;59.370;18.016;2023-10-08T11:59:49;101447.63;;;14.37;38.35
14295;BME280;7231;59.370;18.016;2023-10-08T12:02:23;101489.50;;;14.59;38.27
14295;BME280;7231;59.370;18.016;2023-10-08T12:04:51;101506.75;;;14.43;38.36
14295;BME280;7231;59.370;18.016;2023-10-08T12:07:23;101502.19;;;14.38;38.47
14295;BME280;7231;59.370;18.016;2023-10-08T12:09:54;101487.03;;;14.29;38.58
14295;BME280;7231;59.370;18.016;2023-10-08T12:12:22;101493.44;;;14.40;38.69
14295;BME280;7231;59.370;18.016;2023-10-08T12:14:50;101509.50;;;14.48;38.70
14295;BME280;7231;59.370;18.016;2023-10-08T12:17:23;101491.50;;;14.32;38.85
14295;BME280;7231;59.370;18.016;2023-10-08T12:20:06;101452.09;;;14.02;38.71
14295;BME280;7231;59.370;18.016;2023-10-08T12:22:50;101490.38;;;14.22;38.66
14295;BME280;7231;59.370;18.016;2023-10-08T12:25:19;101500.28;;;14.32;38.46
14295;BME280;7231;59.370;18.016;2023-10-08T12:27:47;101503.34;;;14.49;38.32
14295;BME280;7231;59.370;18.016;2023-10-08T12:30:16;101503.78;;;14.69;38.15
14295;BME280;7231;59.370;18.016;2023-10-08T12:32:45;101509.28;;;14.78;38.28
14295;BME280;7231;59.370;18.016;2023-10-08T12:35:13;101455.78;;;14.46;38.38
14295;BME280;7231;59.370;18.016;2023-10-08T12:37:42;101500.03;;;14.57;38.49
14295;BME280;7231;59.370;18.016;2023-10-08T12:40:11;101503.72;;;14.66;38.41
14295;BME280;7231;59.370;18.016;2023-10-08T12:42:50;101497.50;;;15.04;38.19
14295;BME280;7231;59.370;18.016;2023-10-08T12:45:19;101495.66;;;15.45;37.92
14295;BME280;7231;59.370;18.016;2023-10-08T12:47:50;101504.00;;;15.67;37.23
14295;BME280;7231;59.370;18.016;2023-10-08T12:50:20;101509.50;;;15.79;37.05
14295;BME280;7231;59.370;18.016;2023-10-08T12:52:56;101511.78;;;16.10;36.85
14295;BME280;7231;59.370;18.016;2023-10-08T12:55:27;101509.53;;;16.35;36.34
14295;BME280;7231;59.370;18.016;2023-10-08T12:57:57;101517.41;;;16.30;36.25
14295;BME280;7231;59.370;18.016;2023-10-08T13:00:32;101523.00;;;16.50;36.32
14295;BME280;7231;59.370;18.016;2023-10-08T13:03:02;101537.31;;;16.64;35.82
14295;BME280;7231;59.370;18.016;2023-10-08T13:05:32;101510.94;;;16.69;35.72
14295;BME280;7231;59.370;18.016;2023-10-08T13:08:01;101523.41;;;16.76;35.64
14295;BME280;7231;59.370;18.016;2023-10-08T13:10:36;101415.06;;;16.31;35.47
14295;BME280;7231;59.370;18.016;2023-10-08T13:13:08;101522.06;;;17.10;35.43
14295;BME280;7231;59.370;18.016;2023-10-08T13:15:37;101520.56;;;17.32;35.15
14295;BME280;7231;59.370;18.016;2023-10-08T13:18:06;101524.25;;;17.46;35.14
14295;BME280;7231;59.370;18.016;2023-10-08T13:20:35;101530.72;;;17.69;34.90
14295;BME280;7231;59.370;18.016;2023-10-08T13:23:03;101522.84;;;17.78;34.71
14295;BME280;7231;59.370;18.016;2023-10-08T13:25:32;101537.41;;;18.29;34.62
14295;BME280;7231;59.370;18.016;2023-10-08T13:28:06;101535.13;;;18.83;34.16